Time;durP1;ratioP1;P1;durP2;ratioP2;P2;SDS_P1;SDS_P2;PMS_P1;PMS_P2;Temp;Humidity;BMP_temperature;BMP_pressure;BME280_temperature;BME280_humidity;BME280_pressure;Samples;Min_cycle;Max_cycle;Signal;HPM_P1;HPM_P2
2021/08/31 00:05:11;;;;;;;4.20;2.30;;;18.60;73.20;;;;;;20912269;28;20112;-80
2021/08/31 00:15:11;;;;;;;3.53;2.55;;;18.60;73.10;;;;;;20880223;28;20029;-79
2021/08/31 00:25:12;;;;;;;7.00;2.65;;;18.60;73.20;;;;;;20879456;28;20033;-80
2021/08/31 00:35:13;;;;;;;4.30;2.28;;;18.60;73.10;;;;;;20877810;28;20037;-79
2021/08/31 00:45:13;;;;;;;3.03;2.25;;;18.60;73.10;;;;;;20910876;28;20064;-78
2021/08/31 00:55:17;;;;;;;3.95;2.30;;;18.60;73.10;;;;;;20911000;28;20481;-79
2021/08/31 01:05:19;;;;;;;4.00;2.30;;;18.60;73.10;;;;;;20910122;28;20490;-79
2021/08/31 01:15:19;;;;;;;3.40;2.03;;;18.60;73.00;;;;;;20910124;28;20068;-78
2021/08/31 01:25:20;;;;;;;4.55;2.33;;;18.60;73.00;;;;;;20875583;28;20086;-79
2021/08/31 01:35:20;;;;;;;3.15;2.10;;;18.60;73.00;;;;;;20892087;28;20059;-79
2021/08/31 01:45:21;;;;;;;3.58;2.33;;;18.60;73.00;;;;;;20908321;28;20072;-79
2021/08/31 01:55:22;;;;;;;3.67;2.42;;;18.60;73.60;;;;;;20877308;28;20121;-78
2021/08/31 02:05:22;;;;;;;3.50;2.25;;;18.60;72.90;;;;;;20921757;28;20075;-80
2021/08/31 02:15:23;;;;;;;3.05;2.20;;;18.60;72.90;;;;;;20872969;28;20032;-79
2021/08/31 02:25:26;;;;;;;4.15;2.65;;;18.60;72.90;;;;;;20903341;28;20039;-79
2021/08/31 02:35:28;;;;;;;3.25;2.25;;;18.50;72.80;;;;;;20888073;28;20033;-80
2021/08/31 02:45:29;;;;;;;4.10;2.35;;;18.50;72.80;;;;;;20918897;28;20080;-79
2021/08/31 02:55:29;;;;;;;2.95;2.22;;;18.60;72.90;;;;;;20902541;28;20478;-79
2021/08/31 03:05:30;;;;;;;3.70;2.33;;;18.50;72.80;;;;;;20884834;28;20041;-79
2021/08/31 03:15:31;;;;;;;3.03;2.20;;;18.50;72.80;;;;;;20918729;28;20041;-79
2021/08/31 03:25:32;;;;;;;4.28;2.67;;;18.50;72.70;;;;;;20915530;28;20068;-78
2021/08/31 03:35:32;;;;;;;3.58;2.85;;;18.50;72.80;;;;;;20899018;28;20040;-78
2021/08/31 03:45:34;;;;;;;3.30;2.50;;;18.50;72.70;;;;;;20881878;28;20036;-80
2021/08/31 03:55:35;;;;;;;4.63;2.83;;;18.50;72.80;;;;;;20914299;28;20037;-78
2021/08/31 04:05:36;;;;;;;3.58;2.50;;;18.50;72.70;;;;;;20897135;28;20040;-80
2021/08/31 04:15:37;;;;;;;3.28;2.28;;;18.50;72.70;;;;;;20896513;28;20075;-79
2021/08/31 04:25:39;;;;;;;3.83;2.28;;;18.50;72.70;;;;;;20878071;28;20040;-80
2021/08/31 04:35:39;;;;;;;4.15;2.90;;;18.50;72.70;;;;;;20895422;28;20368;-78
2021/08/31 04:45:41;;;;;;;4.25;2.70;;;18.50;72.70;;;;;;20893851;28;20463;-80
2021/08/31 04:55:42;;;;;;;3.25;2.47;;;18.40;72.70;;;;;;20878405;28;20033;-78
2021/08/31 05:05:44;;;;;;;3.50;2.30;;;18.50;72.70;;;;;;20926493;28;20052;-79
2021/08/31 05:15:45;;;;;;;5.20;3.15;;;18.40;72.60;;;;;;20893523;28;20032;-78
2021/08/31 05:25:45;;;;;;;4.05;2.65;;;18.40;72.60;;;;;;20859619;28;20483;-79
2021/08/31 05:35:46;;;;;;;5.57;2.63;;;18.40;72.60;;;;;;20869787;28;20037;-80
2021/08/31 05:45:48;;;;;;;3.55;2.53;;;18.40;72.60;;;;;;20907157;28;20068;-79
2021/08/31 05:55:48;;;;;;;2.75;2.10;;;18.40;72.60;;;;;;20874361;28;20120;-79
2021/08/31 06:05:49;;;;;;;4.05;2.60;;;18.40;72.60;;;;;;20906173;28;20070;-79
2021/08/31 06:15:49;;;;;;;4.93;2.92;;;18.40;72.60;;;;;;20904193;28;20049;-80
2021/08/31 06:25:50;;;;;;;4.20;2.72;;;18.30;72.50;;;;;;20918642;28;20080;-79
2021/08/31 06:35:50;;;;;;;5.53;2.83;;;18.40;72.60;;;;;;20867320;28;20044;-79
2021/08/31 06:45:51;;;;;;;5.80;2.70;;;18.40;72.60;;;;;;20903962;28;20064;-88
2021/08/31 06:55:52;;;;;;;4.03;2.72;;;18.40;72.60;;;;;;20838445;28;20091;-79
2021/08/31 07:05:52;;;;;;;5.38;3.40;;;18.40;72.60;;;;;;20820353;28;20053;-86
2021/08/31 07:15:53;;;;;;;4.10;2.65;;;18.40;72.60;;;;;;20804046;28;20730;-78
2021/08/31 07:25:54;;;;;;;3.45;2.42;;;18.40;72.70;;;;;;20847854;28;20033;-77
2021/08/31 07:35:54;;;;;;;5.22;3.08;;;18.40;72.70;;;;;;20837295;28;20029;-87
2021/08/31 07:45:55;;;;;;;4.25;2.65;;;18.40;72.70;;;;;;20813713;28;20123;-76
2021/08/31 07:55:56;;;;;;;4.18;2.47;;;18.40;72.80;;;;;;20825912;28;20444;-77
2021/08/31 08:05:59;;;;;;;4.88;2.28;;;18.40;72.80;;;;;;20826704;28;20473;-77
2021/08/31 08:15:59;;;;;;;4.63;2.72;;;18.40;72.80;;;;;;20853120;28;20056;-77
2021/08/31 08:26:00;;;;;;;4.55;2.40;;;18.40;72.90;;;;;;20890953;28;20079;-75
2021/08/31 08:36:03;;;;;;;3.90;2.90;;;18.50;73.00;;;;;;20892156;28;20044;-78
2021/08/31 08:46:05;;;;;;;4.45;2.67;;;18.50;73.00;;;;;;20888605;28;20055;-79
2021/08/31 08:56:06;;;;;;;5.18;2.45;;;18.50;73.00;;;;;;20887353;28;20057;-76
2021/08/31 09:06:20;;;;;;;5.85;2.78;;;18.50;73.10;;;;;;20907231;28;20186;-76
2021/08/31 09:16:22;;;;;;;5.10;2.50;;;18.50;73.00;;;;;;20920258;28;20025;-76
2021/08/31 09:26:43;;;;;;;4.38;2.67;;;18.50;73.00;;;;;;20902273;28;20122;-77
2021/08/31 09:36:44;;;;;;;5.45;2.70;;;18.60;72.90;;;;;;20918631;28;20483;-77
2021/08/31 09:46:58;;;;;;;5.07;2.70;;;18.50;72.70;;;;;;20901370;28;20033;-77
2021/08/31 09:56:59;;;;;;;7.18;3.15;;;18.50;72.60;;;;;;20917771;28;20041;-82
2021/08/31 10:07:01;;;;;;;3.70;2.33;;;18.50;72.40;;;;;;21270164;22;20063;-78
2021/08/31 10:17:02;;;;;;;3.95;2.53;;;18.50;72.30;;;;;;20989391;28;20037;-79
2021/08/31 10:27:35;;;;;;;4.47;2.25;;;18.60;72.20;;;;;;21013611;28;20036;-77
2021/08/31 10:37:46;;;;;;;3.10;2.38;;;18.60;72.10;;;;;;20967531;28;20040;-80
2021/08/31 10:47:47;;;;;;;6.47;2.83;;;18.50;72.00;;;;;;20966707;28;20036;-79
2021/08/31 10:57:47;;;;;;;5.53;2.30;;;18.60;72.10;;;;;;20932961;28;20039;-72
2021/08/31 11:07:59;;;;;;;6.65;2.90;;;18.60;72.00;;;;;;21012482;28;20036;-76
2021/08/31 11:18:00;;;;;;;5.35;3.03;;;18.60;72.00;;;;;;21063798;28;20036;-72
2021/08/31 11:28:05;;;;;;;7.00;2.85;;;18.60;71.90;;;;;;21065417;28;20090;-76
2021/08/31 11:38:08;;;;;;;4.70;2.28;;;18.60;71.90;;;;;;21051517;28;20036;-77
2021/08/31 11:48:09;;;;;;;5.25;2.55;;;18.60;71.80;;;;;;21047280;28;20028;-77
2021/08/31 11:58:10;;;;;;;6.03;2.67;;;18.60;71.80;;;;;;21030786;28;20043;-77
2021/08/31 12:08:12;;;;;;;6.45;2.58;;;18.60;71.80;;;;;;21017065;28;20302;-78
2021/08/31 12:18:12;;;;;;;4.78;2.72;;;18.70;71.80;;;;;;21021251;28;20027;-80
2021/08/31 12:28:14;;;;;;;4.10;2.30;;;18.70;71.80;;;;;;21065568;28;20044;-86
2021/08/31 12:38:24;;;;;;;7.82;2.88;;;18.70;71.80;;;;;;21062986;28;20290;-80
2021/08/31 12:48:46;;;;;;;6.85;2.60;;;18.80;71.70;;;;;;21039510;28;20131;-78
2021/08/31 12:58:47;;;;;;;6.55;2.60;;;18.80;71.30;;;;;;21055468;28;20382;-77
2021/08/31 13:08:47;;;;;;;5.75;2.67;;;18.70;71.10;;;;;;21057908;28;20063;-79
2021/08/31 13:18:48;;;;;;;7.00;3.05;;;18.80;70.90;;;;;;21021532;28;20068;-76
2021/08/31 13:28:49;;;;;;;4.97;2.50;;;18.80;70.70;;;;;;21036938;28;20032;-81
2021/08/31 13:38:51;;;;;;;5.13;2.67;;;18.90;70.30;;;;;;21041478;28;20032;-78
2021/08/31 13:48:52;;;;;;;6.53;2.08;;;18.90;70.20;;;;;;21040497;28;20067;-77
2021/08/31 13:58:53;;;;;;;6.05;2.78;;;18.90;69.80;;;;;;21037226;28;20048;-77
2021/08/31 14:08:54;;;;;;;5.47;2.75;;;18.90;69.60;;;;;;21036809;28;20036;-81
2021/08/31 14:18:59;;;;;;;5.75;2.38;;;19.00;69.30;;;;;;21038028;28;20059;-84
2021/08/31 14:29:00;;;;;;;9.98;3.53;;;19.00;69.20;;;;;;21053015;28;20098;-80
2021/08/31 14:39:00;;;;;;;5.47;2.67;;;19.10;69.50;;;;;;21046672;28;20036;-81
2021/08/31 14:49:01;;;;;;;3.92;2.20;;;19.10;69.70;;;;;;21046856;28;20492;-79
2021/08/31 14:59:03;;;;;;;4.07;2.40;;;19.10;69.80;;;;;;21046550;28;20032;-80
2021/08/31 15:09:06;;;;;;;3.88;2.30;;;19.10;69.70;;;;;;21012277;28;20040;-80
2021/08/31 15:19:07;;;;;;;5.50;2.40;;;19.20;69.70;;;;;;21061029;28;20074;-80
2021/08/31 15:29:08;;;;;;;6.68;2.38;;;19.20;69.50;;;;;;21043688;28;20032;-80
2021/08/31 15:39:08;;;;;;;4.22;2.35;;;19.30;69.10;;;;;;21044492;28;20042;-82
2021/08/31 15:49:09;;;;;;;4.07;2.20;;;19.40;68.70;;;;;;21008720;28;20027;-81
2021/08/31 15:59:10;;;;;;;3.38;1.77;;;19.40;68.60;;;;;;21057931;28;20032;-82
2021/08/31 16:09:10;;;;;;;3.13;2.03;;;19.50;68.60;;;;;;21008011;28;20043;-81
2021/08/31 16:19:11;;;;;;;3.10;1.95;;;19.60;68.60;;;;;;21023040;28;20043;-81
2021/08/31 16:29:15;;;;;;;4.50;1.80;;;19.60;68.50;;;;;;21023650;28;20437;-82
2021/08/31 16:39:15;;;;;;;4.10;2.38;;;19.60;68.70;;;;;;21007954;28;20063;-83
2021/08/31 16:49:17;;;;;;;3.63;2.33;;;19.60;68.60;;;;;;21058106;28;20110;-83
2021/08/31 16:59:21;;;;;;;3.17;1.85;;;19.60;68.70;;;;;;21056763;28;20024;-77
2021/08/31 17:09:21;;;;;;;3.20;2.10;;;19.60;68.80;;;;;;21038779;28;20040;-77
2021/08/31 17:19:22;;;;;;;3.13;1.88;;;19.60;68.90;;;;;;20997928;28;20036;-81
2021/08/31 17:29:23;;;;;;;4.57;2.05;;;19.50;69.10;;;;;;20963718;28;20036;-76
2021/08/31 17:39:23;;;;;;;3.72;2.10;;;19.50;69.00;;;;;;20971577;28;20471;-77
2021/08/31 17:49:24;;;;;;;3.25;2.13;;;19.50;69.20;;;;;;20973879;28;20040;-78
2021/08/31 17:59:26;;;;;;;5.80;1.77;;;19.40;69.60;;;;;;20970324;28;20029;-84
2021/08/31 18:09:26;;;;;;;3.97;1.90;;;19.40;69.90;;;;;;20955487;28;20051;-80
2021/08/31 18:19:27;;;;;;;4.53;2.03;;;19.30;70.00;;;;;;20969444;28;20337;-80
2021/08/31 18:29:28;;;;;;;3.10;1.88;;;19.30;70.20;;;;;;20962468;28;20123;-78
2021/08/31 18:39:28;;;;;;;3.55;1.77;;;19.30;70.20;;;;;;20945419;28;20093;-81
2021/08/31 18:49:29;;;;;;;2.45;1.70;;;19.30;70.30;;;;;;20945543;28;20127;-80
2021/08/31 18:59:29;;;;;;;4.00;2.03;;;19.30;70.50;;;;;;20962731;28;20119;-78
2021/08/31 19:09:30;;;;;;;3.03;1.85;;;19.20;70.50;;;;;;20945075;28;20040;-80
2021/08/31 19:19:30;;;;;;;3.58;2.00;;;19.20;70.60;;;;;;20977894;28;20040;-80
2021/08/31 19:29:31;;;;;;;3.67;2.25;;;19.20;70.60;;;;;;20976501;28;20052;-80
2021/08/31 19:39:32;;;;;;;2.47;1.75;;;19.20;71.30;;;;;;20976254;28;20043;-80
2021/08/31 19:49:32;;;;;;;4.53;2.50;;;19.10;70.70;;;;;;20940966;28;20032;-79
2021/08/31 19:59:33;;;;;;;4.00;2.10;;;19.10;70.70;;;;;;20958022;28;20094;-80
2021/08/31 20:09:34;;;;;;;4.00;2.25;;;19.20;70.80;;;;;;20940471;28;20040;-80
2021/08/31 20:19:35;;;;;;;3.83;2.38;;;19.10;70.80;;;;;;20956980;28;20091;-79
2021/08/31 20:29:36;;;;;;;2.92;2.05;;;19.10;70.80;;;;;;20956354;28;20497;-80
2021/08/31 20:39:37;;;;;;;3.28;1.83;;;19.10;70.80;;;;;;20922923;28;20464;-79
2021/08/31 20:49:38;;;;;;;4.60;2.08;;;19.10;70.90;;;;;;20954882;28;20063;-79
2021/08/31 20:59:38;;;;;;;3.00;2.05;;;19.10;70.90;;;;;;20955900;28;20041;-79
2021/08/31 21:09:39;;;;;;;4.40;2.67;;;19.10;70.90;;;;;;20955023;28;20542;-79
2021/08/31 21:19:40;;;;;;;3.40;2.17;;;19.00;70.90;;;;;;21005234;28;20502;-79
2021/08/31 21:29:40;;;;;;;4.07;2.35;;;19.10;70.90;;;;;;20937300;28;20494;-78
2021/08/31 21:39:41;;;;;;;3.88;2.40;;;19.00;70.80;;;;;;20969140;28;20036;-80
2021/08/31 21:49:41;;;;;;;3.25;2.30;;;19.00;70.90;;;;;;20935198;28;20120;-81
2021/08/31 21:59:42;;;;;;;3.05;2.22;;;19.00;71.00;;;;;;20984439;28;20040;-80
2021/08/31 22:09:42;;;;;;;3.97;2.60;;;19.00;71.00;;;;;;20949849;28;20044;-80
2021/08/31 22:19:43;;;;;;;5.05;2.42;;;19.00;71.00;;;;;;20964924;28;20028;-79
2021/08/31 22:29:44;;;;;;;3.00;1.90;;;19.00;71.10;;;;;;20949060;28;20119;-80
2021/08/31 22:39:44;;;;;;;4.05;2.40;;;19.00;71.10;;;;;;20980812;28;20041;-79
2021/08/31 22:49:45;;;;;;;4.03;2.47;;;19.00;71.20;;;;;;20964229;28;20173;-80
2021/08/31 22:59:45;;;;;;;3.20;2.28;;;19.00;71.20;;;;;;20946428;28;20453;-80
2021/08/31 23:09:46;;;;;;;5.63;2.35;;;19.00;71.20;;;;;;20962780;28;20559;-80
2021/08/31 23:19:46;;;;;;;4.68;2.60;;;19.00;71.30;;;;;;20962351;28;20060;-80
2021/08/31 23:29:47;;;;;;;4.43;2.40;;;19.00;71.30;;;;;;20943521;28;20070;-79
2021/08/31 23:39:47;;;;;;;6.30;2.47;;;19.00;71.30;;;;;;20926685;28;20036;-80
2021/08/31 23:49:48;;;;;;;7.40;2.22;;;19.00;71.30;;;;;;20958545;28;20170;-80
2021/08/31 23:59:49;;;;;;;4.78;2.17;;;19.00;71.30;;;;;;20957988;28;20032;-79
